Accueil
METAR-TAF:

METAR-TAF

Aéroports :

Aéroport international d'Athènes Elefthérios-Venizélos

Athènes, Grèce

latitude: 37-56N, longitude: 023-56E, altitude: 94 m

Observation

Le bulletin a été fait il y a 30 minutes, à 11:20 UTC
Vent 9 kt de sud-ouest
Température 15°C
Humidité 51%
Pression 1018 hPa
Visibilité 10 km ou plus
Quelques nuages à une hauteur de 3000 ft

METAR: LGAV 181120Z 23009KT 9999 FEW030 15/05 Q1018 NOSIG

Heure: 13:50 (11:50 UTC)

Prévision

Le bulletin a été fait il y a 50 minutes, à 11:00 UTC
Prévision valable du 18 à 12 UTC au 19 à 12 UTC
Vent 15 kt de sud-ouest
Visibilité 10 km ou plus
Quelques nuages à une hauteur de 2500 ft
Nuages épars à une hauteur de 7000 ft

TAF: LGAV 181100Z 1812/1912 23015KT 9999 FEW025 SCT070

Observations et prévisions météorologiques de plus de 4000 aéroports (messages METAR et TAF).

Les stations disponibles sont représentées par des disques jaunes et rouges sur la carte.

Passer la souris dessus pour voir le nom de la station.

Cliquer dessus pour voir les observations et prévisions météorologiques.

Pour changer de carte: cliquez sur les boutons verts avec une croix noire pour zoomer, sur le bouton vert avec un tiret pour effectuer un zoom arrière, ou sur les flèches vertes pour les cartes adjacentes.


METAR-TAF: